Newport, New Jersey
Current Conditions -  °F | °C
As of 6:54 PM on Saturday 25 Oct 2014 (Local Time) from KMIV Reporting Station
Clear Clear  
Wind Chill: 60°   Ceiling: Unl
Heat Index: 60°   Visibility: 10mi
Dew Point: 46°   Wind: 3mph
Humidity: 60%   Direction: 210°SSW
Pressure: 29.71"   Gusts: NA
Location:  39.3°N, 75.18°W
Report Text: KMIV 252254Z AUTO 21003KT 10SM CLR 16/08 A2971 RMK AO2 SLP060 T01560078
Loading
Personal Weather Stations






























Interactive Weather Map
Tropical Storm Tracking
New forecast layout! Learn more

10-Day Weather Forecast

Advertisements
Track Severe Weather on mobile